Time;durP1;ratioP1;P1;durP2;ratioP2;P2;SDS_P1;SDS_P2;PMS_P1;PMS_P2;Temp;Humidity;BMP_temperature;BMP_pressure;BME280_temperature;BME280_humidity;BME280_pressure;Samples;Min_cycle;Max_cycle;Signal;HPM_P1;HPM_P2
2021/11/14 00:01:13;;;;;;;23.27;16.77;;;;;;;;;;4973888;28;20201;-86
2021/11/14 00:03:41;;;;;;;27.43;17.17;;;;;;;;;;4974093;28;20201;-86
2021/11/14 00:06:09;;;;;;;26.87;16.53;;;;;;;;;;4973303;28;20201;-86
2021/11/14 00:08:37;;;;;;;24.97;17.70;;;;;;;;;;4973564;28;20725;-86
2021/11/14 00:11:10;;;;;;;34.17;21.73;;;;;;;;;;4973460;28;20200;-87
2021/11/14 00:13:38;;;;;;;31.73;21.87;;;;;;;;;;4973830;28;20620;-87
2021/11/14 00:16:07;;;;;;;27.17;18.30;;;;;;;;;;4973345;28;20853;-86
2021/11/14 00:18:34;;;;;;;24.17;15.80;;;;;;;;;;4973545;28;20334;-86
2021/11/14 00:21:02;;;;;;;17.33;13.20;;;;;;;;;;4973375;28;20702;-86
2021/11/14 00:23:29;;;;;;;18.17;14.03;;;;;;;;;;4973906;28;20279;-86
2021/11/14 00:25:56;;;;;;;16.50;12.73;;;;;;;;;;4973533;28;20200;-86
2021/11/14 00:28:25;;;;;;;15.87;12.57;;;;;;;;;;4973741;28;20284;-86
2021/11/14 00:30:52;;;;;;;17.70;13.67;;;;;;;;;;4973077;28;20225;-86
2021/11/14 00:33:20;;;;;;;19.50;15.47;;;;;;;;;;4973379;28;20207;-86
2021/11/14 00:35:51;;;;;;;20.77;12.83;;;;;;;;;;4973102;28;20224;-86
2021/11/14 00:38:19;;;;;;;16.53;12.37;;;;;;;;;;4973706;28;20590;-86
2021/11/14 00:40:46;;;;;;;20.33;12.67;;;;;;;;;;4973200;28;20669;-86
2021/11/14 00:43:13;;;;;;;16.67;13.07;;;;;;;;;;4973132;28;20197;-86
2021/11/14 00:45:44;;;;;;;20.03;14.83;;;;;;;;;;4973267;28;20204;-87
2021/11/14 00:48:12;;;;;;;17.27;13.70;;;;;;;;;;4973365;28;20640;-86
2021/11/14 00:50:43;;;;;;;15.30;12.20;;;;;;;;;;4973125;28;20201;-86
2021/11/14 00:53:11;;;;;;;17.87;13.80;;;;;;;;;;4973231;28;20244;-86
2021/11/14 00:55:38;;;;;;;16.60;13.23;;;;;;;;;;4973022;28;20235;-87
2021/11/14 00:58:05;;;;;;;15.50;12.20;;;;;;;;;;4973378;28;20197;-87
2021/11/14 01:00:33;;;;;;;18.63;12.97;;;;;;;;;;4973200;28;20212;-87
2021/11/14 01:03:03;;;;;;;19.20;13.13;;;;;;;;;;4973762;28;20304;-87
2021/11/14 01:05:31;;;;;;;16.30;13.50;;;;;;;;;;4973332;28;20200;-87
2021/11/14 01:07:59;;;;;;;19.03;13.90;;;;;;;;;;4973258;28;20260;-87
2021/11/14 01:10:28;;;;;;;16.70;12.93;;;;;;;;;;4973524;28;20584;-87
2021/11/14 01:12:55;;;;;;;16.27;12.70;;;;;;;;;;4973608;28;20287;-87
2021/11/14 01:15:23;;;;;;;18.17;13.17;;;;;;;;;;4973384;28;20236;-87
2021/11/14 01:17:51;;;;;;;21.90;14.13;;;;;;;;;;4973791;28;20201;-87
2021/11/14 01:20:22;;;;;;;20.77;15.20;;;;;;;;;;4973415;28;20193;-88
2021/11/14 01:22:50;;;;;;;19.40;14.27;;;;;;;;;;4973621;28;20189;-89
2021/11/14 01:25:18;;;;;;;19.17;14.60;;;;;;;;;;4973539;28;20292;-89
2021/11/14 01:27:47;;;;;;;24.07;17.50;;;;;;;;;;4973425;28;20217;-90
2021/11/14 01:30:16;;;;;;;23.37;17.97;;;;;;;;;;4973514;28;20296;-89
2021/11/14 01:32:44;;;;;;;22.13;16.80;;;;;;;;;;4973471;28;20197;-90
2021/11/14 01:35:12;;;;;;;24.07;15.87;;;;;;;;;;4973414;28;20224;-89
2021/11/14 01:37:42;;;;;;;19.03;14.23;;;;;;;;;;4973430;28;20193;-90
2021/11/14 01:40:14;;;;;;;17.97;13.37;;;;;;;;;;4973335;28;20205;-88
2021/11/14 01:42:42;;;;;;;19.23;13.43;;;;;;;;;;4973559;28;20189;-90
2021/11/14 01:45:10;;;;;;;18.40;14.27;;;;;;;;;;4977137;28;20208;-90
2021/11/14 01:47:38;;;;;;;18.70;14.00;;;;;;;;;;4977150;28;20701;-90
2021/11/14 01:50:08;;;;;;;17.87;13.73;;;;;;;;;;4976868;28;20292;-90
2021/11/14 01:52:35;;;;;;;18.50;14.57;;;;;;;;;;4977067;28;20201;-90
2021/11/14 01:55:05;;;;;;;19.90;14.30;;;;;;;;;;4976959;28;20225;-90
2021/11/14 01:57:33;;;;;;;17.47;13.20;;;;;;;;;;4976901;28;20272;-90
2021/11/14 02:00:00;;;;;;;17.47;14.63;;;;;;;;;;4976857;28;20269;-90
2021/11/14 02:02:27;;;;;;;16.53;13.43;;;;;;;;;;4976834;28;20284;-91
2021/11/14 02:04:55;;;;;;;21.73;14.13;;;;;;;;;;4976871;28;20201;-90
2021/11/14 02:07:22;;;;;;;19.97;14.67;;;;;;;;;;4976486;28;20345;-91
2021/11/14 02:09:49;;;;;;;19.70;14.70;;;;;;;;;;4976855;28;20240;-91
2021/11/14 02:12:18;;;;;;;21.53;15.93;;;;;;;;;;4976738;28;20281;-91
2021/11/14 02:14:46;;;;;;;24.93;17.63;;;;;;;;;;4976773;28;20685;-90
2021/11/14 02:17:13;;;;;;;21.37;16.03;;;;;;;;;;4976921;28;20227;-91
2021/11/14 02:19:40;;;;;;;21.00;15.93;;;;;;;;;;4976464;28;20241;-90
2021/11/14 02:22:09;;;;;;;23.33;16.10;;;;;;;;;;4976313;28;20205;-91
2021/11/14 02:24:36;;;;;;;19.47;14.93;;;;;;;;;;4976543;28;20239;-90
2021/11/14 02:27:04;;;;;;;22.60;16.53;;;;;;;;;;4976360;28;20234;-90
2021/11/14 02:29:31;;;;;;;20.93;17.00;;;;;;;;;;4976262;28;20645;-91
2021/11/14 02:31:59;;;;;;;20.50;14.83;;;;;;;;;;4976300;28;20207;-90
2021/11/14 02:34:26;;;;;;;19.03;15.40;;;;;;;;;;4975864;28;20224;-89
2021/11/14 02:36:53;;;;;;;24.30;14.90;;;;;;;;;;4975901;28;20197;-88
2021/11/14 02:39:22;;;;;;;19.90;16.13;;;;;;;;;;4975910;28;20292;-89
2021/11/14 02:41:49;;;;;;;18.13;15.10;;;;;;;;;;4976247;28;20677;-89
2021/11/14 02:44:17;;;;;;;19.33;14.03;;;;;;;;;;4975908;28;20260;-89
2021/11/14 02:46:44;;;;;;;20.63;14.60;;;;;;;;;;4976018;28;20208;-89
2021/11/14 02:49:11;;;;;;;15.47;13.33;;;;;;;;;;4976032;28;20256;-89
2021/11/14 02:51:39;;;;;;;21.13;15.90;;;;;;;;;;4975790;28;20280;-89
2021/11/14 02:54:06;;;;;;;21.50;14.63;;;;;;;;;;4975425;28;20205;-89
2021/11/14 02:56:35;;;;;;;21.83;14.57;;;;;;;;;;4975421;28;20319;-88
2021/11/14 02:59:03;;;;;;;20.17;15.33;;;;;;;;;;4975556;28;20201;-89
2021/11/14 03:01:33;;;;;;;21.93;14.87;;;;;;;;;;4975774;28;20269;-89
2021/11/14 03:04:01;;;;;;;18.27;14.80;;;;;;;;;;4975399;28;20201;-89
2021/11/14 03:06:31;;;;;;;20.90;15.27;;;;;;;;;;4975266;28;20201;-88
2021/11/14 03:08:58;;;;;;;16.77;13.53;;;;;;;;;;4975270;28;20233;-88
2021/11/14 03:11:26;;;;;;;21.17;14.80;;;;;;;;;;4975567;28;20334;-89
2021/11/14 03:13:55;;;;;;;17.03;13.37;;;;;;;;;;4975510;28;20633;-89
2021/11/14 03:16:24;;;;;;;22.40;14.93;;;;;;;;;;4975341;28;20231;-89
2021/11/14 03:18:52;;;;;;;19.63;14.40;;;;;;;;;;4975640;28;20227;-88
2021/11/14 03:21:20;;;;;;;19.63;14.90;;;;;;;;;;4975204;28;20678;-88
2021/11/14 03:23:47;;;;;;;20.13;13.73;;;;;;;;;;4975152;28;20223;-88
2021/11/14 03:26:15;;;;;;;18.33;14.57;;;;;;;;;;4975072;28;20221;-89
2021/11/14 03:28:43;;;;;;;18.00;13.10;;;;;;;;;;4974882;28;20201;-88
2021/11/14 03:31:12;;;;;;;17.77;14.80;;;;;;;;;;4974982;28;20684;-90
2021/11/14 03:33:40;;;;;;;18.47;14.70;;;;;;;;;;4974830;28;20259;-89
2021/11/14 03:36:09;;;;;;;16.03;13.43;;;;;;;;;;4975015;28;20602;-88
2021/11/14 03:38:40;;;;;;;17.00;14.33;;;;;;;;;;4974993;28;20228;-88
2021/11/14 03:41:08;;;;;;;14.10;12.60;;;;;;;;;;4974784;28;20224;-89
2021/11/14 03:43:37;;;;;;;18.90;13.53;;;;;;;;;;4974785;28;20201;-88
2021/11/14 03:46:06;;;;;;;16.43;12.67;;;;;;;;;;4974925;28;20203;-89
2021/11/14 03:48:37;;;;;;;18.33;13.03;;;;;;;;;;4975131;28;20205;-89
2021/11/14 03:51:05;;;;;;;18.10;13.00;;;;;;;;;;4974947;28;20272;-88
2021/11/14 03:53:33;;;;;;;16.33;13.43;;;;;;;;;;4974561;28;20204;-89
2021/11/14 03:56:00;;;;;;;18.60;13.97;;;;;;;;;;4974476;28;20311;-89
2021/11/14 03:58:28;;;;;;;20.73;14.27;;;;;;;;;;4974399;28;20211;-89
2021/11/14 04:00:57;;;;;;;18.70;14.03;;;;;;;;;;4974329;28;20201;-89
2021/11/14 04:03:26;;;;;;;22.43;16.83;;;;;;;;;;4974689;28;20312;-89
2021/11/14 04:05:55;;;;;;;27.60;20.13;;;;;;;;;;4973755;28;20211;-89
2021/11/14 04:08:24;;;;;;;25.20;18.37;;;;;;;;;;4974180;28;20237;-89
2021/11/14 04:10:52;;;;;;;20.10;16.20;;;;;;;;;;4974166;28;20201;-89
2021/11/14 04:13:20;;;;;;;25.07;20.57;;;;;;;;;;4974624;28;20212;-89
2021/11/14 04:15:48;;;;;;;28.27;21.63;;;;;;;;;;4974257;28;20232;-89
2021/11/14 04:18:16;;;;;;;22.20;17.83;;;;;;;;;;4974355;28;20201;-89
2021/11/14 04:20:45;;;;;;;16.73;13.43;;;;;;;;;;4974497;28;20291;-89
2021/11/14 04:23:14;;;;;;;17.97;14.50;;;;;;;;;;4974220;28;20208;-89
2021/11/14 04:25:42;;;;;;;17.23;14.80;;;;;;;;;;4974021;28;20208;-88
2021/11/14 04:28:12;;;;;;;18.23;15.13;;;;;;;;;;4974138;28;20224;-89
2021/11/14 04:30:39;;;;;;;21.57;16.23;;;;;;;;;;4973837;28;20244;-89
2021/11/14 04:33:06;;;;;;;25.37;16.33;;;;;;;;;;4974444;28;20207;-89
2021/11/14 04:35:34;;;;;;;22.17;14.87;;;;;;;;;;4974144;28;20664;-89
2021/11/14 04:38:01;;;;;;;18.07;13.23;;;;;;;;;;4974227;28;20290;-88
2021/11/14 04:40:35;;;;;;;16.77;13.90;;;;;;;;;;4974258;28;20631;-89
2021/11/14 04:43:02;;;;;;;17.63;14.33;;;;;;;;;;4974155;28;20197;-90
2021/11/14 04:45:30;;;;;;;16.10;12.57;;;;;;;;;;4974204;28;20578;-89
2021/11/14 04:47:57;;;;;;;17.47;12.33;;;;;;;;;;4973938;28;20201;-89
2021/11/14 04:50:24;;;;;;;17.03;14.10;;;;;;;;;;4974251;28;20211;-89
2021/11/14 04:52:52;;;;;;;17.23;14.43;;;;;;;;;;4973742;28;20236;-89
2021/11/14 04:55:19;;;;;;;14.57;12.93;;;;;;;;;;4973666;28;20225;-88
2021/11/14 04:57:51;;;;;;;14.67;12.40;;;;;;;;;;4973803;28;20288;-89
2021/11/14 05:00:22;;;;;;;26.40;20.87;;;;;;;;;;4973988;28;20566;-89
2021/11/14 05:02:50;;;;;;;31.47;26.33;;;;;;;;;;4973629;28;20224;-89
2021/11/14 05:05:18;;;;;;;28.10;21.77;;;;;;;;;;4973732;28;20309;-88
2021/11/14 05:07:45;;;;;;;25.23;20.20;;;;;;;;;;4973440;28;20236;-89
2021/11/14 05:10:13;;;;;;;25.77;18.73;;;;;;;;;;4973604;28;20207;-89
2021/11/14 05:12:40;;;;;;;24.73;19.80;;;;;;;;;;4973584;28;20197;-89
2021/11/14 05:15:10;;;;;;;44.37;29.83;;;;;;;;;;4973766;28;20244;-89
2021/11/14 05:17:37;;;;;;;50.70;32.97;;;;;;;;;;4975518;28;20232;-89
2021/11/14 05:20:05;;;;;;;30.50;22.13;;;;;;;;;;4977527;28;20204;-89
2021/11/14 05:22:33;;;;;;;24.20;17.10;;;;;;;;;;4977523;28;20580;-89
2021/11/14 05:25:00;;;;;;;20.00;15.57;;;;;;;;;;4977529;28;20200;-88
2021/11/14 05:27:27;;;;;;;19.10;16.97;;;;;;;;;;4977226;28;20209;-87
2021/11/14 05:29:55;;;;;;;20.47;16.20;;;;;;;;;;4977509;28;20637;-89
2021/11/14 05:32:23;;;;;;;16.10;13.47;;;;;;;;;;4977046;28;20705;-88
2021/11/14 05:34:54;;;;;;;20.03;14.07;;;;;;;;;;4977090;28;20688;-89
2021/11/14 05:37:21;;;;;;;13.87;11.90;;;;;;;;;;4977715;28;20224;-89
2021/11/14 05:39:48;;;;;;;14.07;12.57;;;;;;;;;;4977206;28;20205;-88
2021/11/14 05:42:16;;;;;;;22.40;15.13;;;;;;;;;;4977182;28;20223;-89
2021/11/14 05:44:43;;;;;;;18.93;14.37;;;;;;;;;;4977068;28;20201;-89
2021/11/14 05:47:11;;;;;;;19.10;14.97;;;;;;;;;;4977350;28;20207;-89
2021/11/14 05:49:40;;;;;;;15.47;13.33;;;;;;;;;;4977047;28;20217;-89
2021/11/14 05:52:08;;;;;;;18.80;15.17;;;;;;;;;;4977165;28;20600;-89
2021/11/14 05:54:35;;;;;;;96.80;59.87;;;;;;;;;;4977080;28;20644;-89
2021/11/14 05:57:02;;;;;;;35.27;24.20;;;;;;;;;;4974823;28;20233;-89
2021/11/14 05:59:36;;;;;;;24.10;17.57;;;;;;;;;;4957110;29;20208;-89
2021/11/14 06:02:08;;;;;;;34.43;26.03;;;;;;;;;;4957550;29;20194;-89
2021/11/14 06:04:39;;;;;;;62.23;41.23;;;;;;;;;;4957594;29;20617;-90
2021/11/14 06:07:08;;;;;;;27.60;21.83;;;;;;;;;;4956972;29;20234;-89
2021/11/14 06:09:35;;;;;;;18.90;16.90;;;;;;;;;;4956920;29;20194;-87
2021/11/14 06:12:02;;;;;;;17.63;15.37;;;;;;;;;;4956625;29;20205;-87
2021/11/14 06:14:30;;;;;;;28.90;23.93;;;;;;;;;;4957107;29;20289;-87
2021/11/14 06:16:57;;;;;;;29.63;24.90;;;;;;;;;;4957343;29;20225;-87
2021/11/14 06:19:24;;;;;;;27.70;24.73;;;;;;;;;;4957102;29;20198;-88
2021/11/14 06:21:52;;;;;;;29.67;24.10;;;;;;;;;;4957108;29;20734;-87
2021/11/14 06:24:20;;;;;;;24.43;21.90;;;;;;;;;;4957067;29;20205;-88
2021/11/14 06:26:47;;;;;;;25.00;22.30;;;;;;;;;;4956767;29;20208;-88
2021/11/14 06:29:15;;;;;;;22.63;19.70;;;;;;;;;;4956287;28;20221;-89
2021/11/14 06:31:42;;;;;;;23.80;21.27;;;;;;;;;;4957093;29;20248;-89
2021/11/14 06:34:09;;;;;;;32.53;25.87;;;;;;;;;;4956669;29;20201;-88
2021/11/14 06:36:36;;;;;;;21.50;19.20;;;;;;;;;;4956915;29;20232;-89
2021/11/14 06:39:04;;;;;;;28.30;21.53;;;;;;;;;;4956414;29;20197;-88
2021/11/14 06:41:33;;;;;;;29.17;25.63;;;;;;;;;;4956637;29;20194;-89
2021/11/14 06:44:00;;;;;;;20.00;17.50;;;;;;;;;;4956634;29;20194;-89
2021/11/14 06:46:27;;;;;;;22.23;18.90;;;;;;;;;;4956690;29;20202;-89
2021/11/14 06:48:54;;;;;;;23.57;19.57;;;;;;;;;;4956701;29;20281;-89
2021/11/14 06:51:22;;;;;;;18.10;16.13;;;;;;;;;;4956332;29;20296;-88
2021/11/14 06:53:49;;;;;;;23.37;17.60;;;;;;;;;;4956422;29;20571;-88
2021/11/14 06:56:16;;;;;;;22.13;17.20;;;;;;;;;;4956520;29;20226;-89
2021/11/14 06:58:45;;;;;;;27.57;21.77;;;;;;;;;;4956670;29;20234;-91
2021/11/14 07:01:12;;;;;;;36.03;28.63;;;;;;;;;;4956298;29;20208;-89
2021/11/14 07:03:39;;;;;;;29.67;24.80;;;;;;;;;;4956503;29;20198;-88
2021/11/14 07:06:07;;;;;;;31.40;25.37;;;;;;;;;;4956147;29;20208;-88
2021/11/14 07:08:34;;;;;;;24.57;18.73;;;;;;;;;;4955899;29;20312;-91
2021/11/14 07:11:01;;;;;;;25.93;20.40;;;;;;;;;;4955864;29;20264;-89
2021/11/14 07:13:31;;;;;;;26.17;21.60;;;;;;;;;;4956555;29;20768;-89
2021/11/14 07:16:00;;;;;;;27.97;23.90;;;;;;;;;;4956410;29;20240;-92
2021/11/14 07:18:27;;;;;;;44.50;32.97;;;;;;;;;;4956109;29;20205;-92
2021/11/14 07:20:54;;;;;;;24.50;19.17;;;;;;;;;;4956208;29;20583;-90
2021/11/14 07:23:22;;;;;;;19.07;17.03;;;;;;;;;;4956693;28;20212;-88
2021/11/14 07:25:49;;;;;;;26.33;19.63;;;;;;;;;;4955700;29;20750;-92
2021/11/14 07:28:16;;;;;;;18.43;15.33;;;;;;;;;;4956002;28;20663;-89
2021/11/14 07:30:43;;;;;;;17.93;15.63;;;;;;;;;;4974686;28;20205;-91
2021/11/14 07:33:12;;;;;;;24.27;21.13;;;;;;;;;;4975171;28;20201;-90
2021/11/14 07:35:40;;;;;;;15.13;11.10;;;;;;;;;;4974769;28;20201;-90
2021/11/14 07:38:07;;;;;;;11.90;10.40;;;;;;;;;;4975173;28;20609;-93
2021/11/14 07:40:35;;;;;;;20.20;15.03;;;;;;;;;;4974338;28;20213;-94
2021/11/14 07:43:03;;;;;;;12.97;11.60;;;;;;;;;;4974792;28;20207;-94
2021/11/14 07:45:30;;;;;;;9.20;8.17;;;;;;;;;;4975102;28;20256;-94
2021/11/14 07:47:58;;;;;;;9.37;8.43;;;;;;;;;;4975012;28;20693;-94
2021/11/14 07:50:29;;;;;;;8.33;7.50;;;;;;;;;;4974691;28;20296;-94
2021/11/14 07:52:56;;;;;;;9.37;7.33;;;;;;;;;;4974812;28;20196;-93
2021/11/14 07:55:23;;;;;;;10.30;8.00;;;;;;;;;;4974617;28;20212;-92
2021/11/14 07:57:50;;;;;;;8.97;7.97;;;;;;;;;;4974512;28;20229;-94
2021/11/14 08:00:19;;;;;;;10.13;8.50;;;;;;;;;;4974442;28;20224;-93
2021/11/14 08:02:48;;;;;;;8.77;7.87;;;;;;;;;;4974530;28;20207;-92
2021/11/14 08:05:16;;;;;;;8.77;7.33;;;;;;;;;;4974612;28;20266;-93
2021/11/14 08:07:46;;;;;;;7.80;6.67;;;;;;;;;;4974343;28;20260;-95
2021/11/14 08:10:14;;;;;;;7.80;7.10;;;;;;;;;;4974590;28;20247;-95
2021/11/14 08:12:41;;;;;;;8.90;8.00;;;;;;;;;;4955925;28;20212;-92
2021/11/14 08:15:10;;;;;;;8.20;7.40;;;;;;;;;;4955503;29;20206;-90
2021/11/14 08:17:38;;;;;;;13.10;10.27;;;;;;;;;;4955107;29;20232;-90
2021/11/14 08:20:06;;;;;;;11.97;7.90;;;;;;;;;;4955316;28;20637;-91
2021/11/14 08:22:33;;;;;;;10.50;8.03;;;;;;;;;;4954968;28;20264;-90
2021/11/14 08:25:03;;;;;;;8.80;8.00;;;;;;;;;;4955146;29;20202;-89
2021/11/14 08:27:31;;;;;;;8.50;7.37;;;;;;;;;;4954922;29;20299;-89
2021/11/14 08:29:58;;;;;;;9.70;8.10;;;;;;;;;;4955088;28;20197;-89
2021/11/14 08:32:26;;;;;;;13.47;9.17;;;;;;;;;;4991512;28;20279;-90
2021/11/14 08:34:53;;;;;;;9.13;8.23;;;;;;;;;;4993696;28;20652;-90
2021/11/14 08:37:21;;;;;;;9.73;8.73;;;;;;;;;;4993299;28;20318;-90
2021/11/14 08:39:49;;;;;;;10.07;9.07;;;;;;;;;;4993556;28;20673;-90
2021/11/14 08:42:18;;;;;;;9.40;8.50;;;;;;;;;;4993475;28;20332;-89
2021/11/14 08:44:45;;;;;;;9.57;8.57;;;;;;;;;;4993795;28;20207;-90
2021/11/14 08:47:12;;;;;;;8.83;8.00;;;;;;;;;;4993299;28;20685;-90
2021/11/14 08:49:40;;;;;;;10.73;9.63;;;;;;;;;;4993227;28;20195;-90
2021/11/14 08:52:08;;;;;;;11.73;8.60;;;;;;;;;;4993953;28;20254;-91
2021/11/14 08:54:36;;;;;;;10.73;8.77;;;;;;;;;;4997625;28;20560;-89
2021/11/14 08:57:04;;;;;;;8.97;8.10;;;;;;;;;;4997262;28;20238;-89
2021/11/14 08:59:33;;;;;;;9.07;8.17;;;;;;;;;;4997232;28;20200;-90
2021/11/14 09:02:00;;;;;;;8.83;8.03;;;;;;;;;;4997149;28;20201;-90
2021/11/14 09:04:28;;;;;;;9.77;8.20;;;;;;;;;;4997227;28;20215;-91
2021/11/14 09:06:55;;;;;;;9.23;7.83;;;;;;;;;;4996915;28;20263;-91
2021/11/14 09:09:23;;;;;;;10.67;8.80;;;;;;;;;;4997468;28;20637;-90
2021/11/14 09:11:51;;;;;;;9.67;8.67;;;;;;;;;;4997428;28;20210;-90
2021/11/14 09:14:19;;;;;;;8.67;7.80;;;;;;;;;;4997369;28;20283;-91
2021/11/14 09:16:49;;;;;;;8.30;7.50;;;;;;;;;;4996834;28;20227;-90
2021/11/14 09:19:17;;;;;;;9.40;8.47;;;;;;;;;;4997043;28;20188;-91
2021/11/14 09:21:44;;;;;;;9.93;8.77;;;;;;;;;;4997075;28;20208;-90
2021/11/14 09:24:12;;;;;;;9.13;8.23;;;;;;;;;;4997079;28;20643;-90
2021/11/14 09:26:39;;;;;;;15.87;14.20;;;;;;;;;;4996813;28;20196;-91
2021/11/14 09:29:07;;;;;;;20.80;16.20;;;;;;;;;;4996667;28;20204;-91
2021/11/14 09:31:36;;;;;;;16.23;13.47;;;;;;;;;;4996697;28;20670;-92
2021/11/14 09:34:05;;;;;;;16.03;12.17;;;;;;;;;;4996821;28;20212;-90
2021/11/14 09:36:34;;;;;;;16.63;12.23;;;;;;;;;;4996639;28;20196;-90
2021/11/14 09:39:04;;;;;;;14.63;10.87;;;;;;;;;;4996720;28;20669;-90
2021/11/14 09:41:32;;;;;;;12.73;11.30;;;;;;;;;;4996497;28;20203;-91
2021/11/14 09:43:59;;;;;;;14.07;9.80;;;;;;;;;;4996520;28;20208;-90
2021/11/14 09:46:26;;;;;;;16.27;13.07;;;;;;;;;;4996681;28;20648;-91
2021/11/14 09:48:54;;;;;;;17.07;12.97;;;;;;;;;;4996377;28;20291;-91
2021/11/14 09:51:22;;;;;;;16.37;12.20;;;;;;;;;;4996581;28;20212;-92
2021/11/14 09:53:50;;;;;;;20.10;13.53;;;;;;;;;;4996255;28;20200;-90
2021/11/14 09:56:17;;;;;;;14.57;12.23;;;;;;;;;;4996282;28;20200;-91
2021/11/14 09:58:44;;;;;;;17.10;12.83;;;;;;;;;;4996172;28;20220;-90
2021/11/14 10:01:11;;;;;;;17.63;14.30;;;;;;;;;;4997994;28;20295;-91
2021/11/14 10:03:39;;;;;;;15.13;13.17;;;;;;;;;;4995351;28;20211;-91
2021/11/14 10:06:06;;;;;;;20.83;15.20;;;;;;;;;;4996318;28;20231;-92
2021/11/14 10:08:42;;;;;;;16.77;14.97;;;;;;;;;;4995830;28;20275;-91
2021/11/14 10:11:10;;;;;;;20.20;14.13;;;;;;;;;;4996167;28;20206;-90
2021/11/14 10:13:39;;;;;;;17.73;13.73;;;;;;;;;;4995898;28;20197;-91
2021/11/14 10:16:09;;;;;;;21.93;16.50;;;;;;;;;;4996155;28;20211;-91
2021/11/14 10:18:37;;;;;;;20.87;17.47;;;;;;;;;;4995620;28;20235;-91
2021/11/14 10:21:05;;;;;;;19.23;16.07;;;;;;;;;;4995953;28;20243;-91
2021/11/14 10:23:33;;;;;;;19.13;16.10;;;;;;;;;;4995880;28;20204;-91
2021/11/14 10:26:07;;;;;;;17.20;15.37;;;;;;;;;;4995949;28;20695;-92
2021/11/14 10:28:35;;;;;;;17.40;15.57;;;;;;;;;;4995748;28;20275;-91
2021/11/14 10:31:02;;;;;;;21.73;17.87;;;;;;;;;;4995772;28;20204;-91
2021/11/14 10:33:29;;;;;;;18.23;15.90;;;;;;;;;;4995652;28;20200;-90
2021/11/14 10:35:59;;;;;;;23.10;18.37;;;;;;;;;;4995566;28;20233;-91
2021/11/14 10:38:28;;;;;;;47.43;33.43;;;;;;;;;;4995415;28;20315;-91
2021/11/14 10:40:57;;;;;;;20.63;17.40;;;;;;;;;;4995392;28;20235;-91
2021/11/14 10:43:28;;;;;;;23.10;17.37;;;;;;;;;;4995357;28;20192;-91
2021/11/14 10:45:58;;;;;;;27.67;20.87;;;;;;;;;;4995530;28;20208;-91
2021/11/14 10:48:27;;;;;;;20.80;15.90;;;;;;;;;;4995323;28;20200;-91
2021/11/14 10:50:55;;;;;;;19.00;14.57;;;;;;;;;;4995075;28;20291;-91
2021/11/14 10:53:24;;;;;;;25.93;18.23;;;;;;;;;;4995167;28;20200;-90
2021/11/14 10:55:53;;;;;;;27.03;20.97;;;;;;;;;;4995240;28;20297;-91
2021/11/14 10:58:22;;;;;;;24.50;16.60;;;;;;;;;;4995419;28;20246;-90
2021/11/14 11:00:53;;;;;;;21.17;17.17;;;;;;;;;;4995460;28;20282;-91
2021/11/14 11:03:20;;;;;;;17.70;13.77;;;;;;;;;;4995153;28;20267;-91
2021/11/14 11:05:48;;;;;;;23.33;16.70;;;;;;;;;;4995004;28;20199;-90
2021/11/14 11:08:20;;;;;;;15.03;11.60;;;;;;;;;;4994665;28;20274;-90
2021/11/14 11:10:49;;;;;;;23.13;17.00;;;;;;;;;;4994919;28;20189;-90
2021/11/14 11:13:19;;;;;;;16.47;14.47;;;;;;;;;;4994709;28;20232;-94
2021/11/14 11:15:48;;;;;;;16.87;12.90;;;;;;;;;;4965233;28;20217;-91
2021/11/14 11:18:19;;;;;;;14.07;12.27;;;;;;;;;;4975059;28;20256;-92
2021/11/14 11:20:51;;;;;;;16.60;12.97;;;;;;;;;;4975214;28;20189;-91
2021/11/14 11:23:21;;;;;;;20.43;12.33;;;;;;;;;;4975153;28;20185;-91
2021/11/14 11:25:51;;;;;;;20.67;15.37;;;;;;;;;;4975102;28;20280;-91
2021/11/14 11:28:20;;;;;;;17.90;12.17;;;;;;;;;;4975294;28;20204;-90
2021/11/14 11:30:49;;;;;;;14.80;12.67;;;;;;;;;;4975284;28;20193;-90
2021/11/14 11:33:19;;;;;;;11.13;10.03;;;;;;;;;;4975033;28;20584;-91
2021/11/14 11:35:46;;;;;;;13.63;10.77;;;;;;;;;;4975258;28;20293;-92
2021/11/14 11:38:15;;;;;;;34.90;26.03;;;;;;;;;;4974789;28;20239;-93
2021/11/14 11:40:43;;;;;;;14.97;11.60;;;;;;;;;;4974866;28;20204;-92
2021/11/14 11:43:10;;;;;;;33.53;20.67;;;;;;;;;;4974771;28;20209;-92
2021/11/14 11:45:40;;;;;;;14.87;12.30;;;;;;;;;;4974759;28;20201;-91
2021/11/14 11:48:15;;;;;;;14.10;12.30;;;;;;;;;;4975137;28;20580;-93
2021/11/14 11:50:44;;;;;;;69.70;31.17;;;;;;;;;;4974853;28;20618;-92
2021/11/14 11:53:22;;;;;;;26.63;18.07;;;;;;;;;;4974579;28;20209;-92
2021/11/14 11:55:53;;;;;;;21.77;14.33;;;;;;;;;;4974914;28;20189;-92
2021/11/14 11:58:20;;;;;;;16.27;14.07;;;;;;;;;;4973840;28;20231;-91
2021/11/14 12:00:51;;;;;;;16.57;14.20;;;;;;;;;;4974728;28;20247;-92
2021/11/14 12:03:26;;;;;;;26.83;19.27;;;;;;;;;;4974471;28;20272;-92
2021/11/14 12:05:55;;;;;;;18.40;13.13;;;;;;;;;;4974788;28;20200;-91
2021/11/14 12:08:22;;;;;;;14.47;12.23;;;;;;;;;;4978382;28;20272;-91
2021/11/14 12:10:58;;;;;;;18.57;12.83;;;;;;;;;;4974749;28;20204;-92
2021/11/14 12:13:30;;;;;;;15.67;12.53;;;;;;;;;;4974847;28;20200;-91
2021/11/14 12:16:00;;;;;;;13.47;12.07;;;;;;;;;;4974873;28;20207;-91
2021/11/14 12:18:38;;;;;;;14.73;11.93;;;;;;;;;;4974401;28;20246;-92
2021/11/14 12:21:15;;;;;;;16.17;12.63;;;;;;;;;;4974956;28;20228;-92
2021/11/14 12:23:52;;;;;;;18.27;14.27;;;;;;;;;;4975944;28;20200;-91
2021/11/14 12:26:25;;;;;;;16.20;14.40;;;;;;;;;;4974466;28;20220;-91
2021/11/14 12:28:54;;;;;;;16.63;14.83;;;;;;;;;;4974353;28;20186;-92
2021/11/14 12:31:25;;;;;;;16.37;14.33;;;;;;;;;;4974319;28;20201;-91
2021/11/14 12:33:54;;;;;;;18.33;16.27;;;;;;;;;;4974031;28;20189;-90
2021/11/14 12:36:36;;;;;;;18.63;15.93;;;;;;;;;;4974125;28;20260;-90
2021/11/14 12:39:16;;;;;;;19.43;15.83;;;;;;;;;;4974302;28;20666;-90
2021/11/14 12:41:57;;;;;;;16.83;14.57;;;;;;;;;;4974322;28;20216;-91
2021/11/14 12:44:36;;;;;;;22.80;18.03;;;;;;;;;;4973750;28;20275;-90
2021/11/14 12:47:18;;;;;;;21.93;17.90;;;;;;;;;;4973981;28;20201;-91
2021/11/14 12:49:47;;;;;;;23.67;19.23;;;;;;;;;;4974440;28;20185;-91
2021/11/14 12:52:28;;;;;;;27.90;21.63;;;;;;;;;;4974069;28;20200;-91
2021/11/14 12:54:56;;;;;;;25.63;22.07;;;;;;;;;;4974186;28;20696;-91
2021/11/14 12:57:28;;;;;;;34.27;26.17;;;;;;;;;;4973888;28;20201;-91
2021/11/14 12:59:56;;;;;;;27.77;22.57;;;;;;;;;;4974035;28;20193;-92
2021/11/14 13:02:26;;;;;;;26.70;22.83;;;;;;;;;;4973995;28;20215;-92
2021/11/14 13:04:55;;;;;;;29.93;22.87;;;;;;;;;;4974010;28;20204;-91
2021/11/14 13:07:29;;;;;;;33.27;27.00;;;;;;;;;;4973646;28;20239;-91
2021/11/14 13:09:57;;;;;;;29.63;22.53;;;;;;;;;;4973895;28;20260;-91
2021/11/14 13:12:26;;;;;;;25.00;18.90;;;;;;;;;;4973719;28;20217;-91
2021/11/14 13:15:06;;;;;;;29.90;23.07;;;;;;;;;;4973695;28;20197;-92
2021/11/14 13:17:33;;;;;;;38.60;30.70;;;;;;;;;;4973827;28;20221;-90
2021/11/14 13:20:02;;;;;;;30.80;25.73;;;;;;;;;;4973507;28;20283;-91
2021/11/14 13:22:32;;;;;;;25.50;20.87;;;;;;;;;;4973637;28;20204;-92
2021/11/14 13:25:02;;;;;;;25.00;21.70;;;;;;;;;;4973901;28;20586;-91
2021/11/14 13:27:31;;;;;;;24.33;21.23;;;;;;;;;;4973742;28;20244;-91
2021/11/14 13:30:00;;;;;;;24.17;19.23;;;;;;;;;;4973452;28;20204;-91
2021/11/14 13:32:30;;;;;;;28.83;24.53;;;;;;;;;;4973645;28;20764;-91
2021/11/14 13:34:58;;;;;;;34.40;28.37;;;;;;;;;;4973562;28;20205;-92
2021/11/14 13:37:30;;;;;;;29.67;25.30;;;;;;;;;;4973558;28;20232;-91
2021/11/14 13:40:04;;;;;;;21.97;19.07;;;;;;;;;;4976944;28;20185;-91
2021/11/14 13:42:34;;;;;;;23.13;20.63;;;;;;;;;;4977221;28;20227;-91
2021/11/14 13:45:04;;;;;;;31.10;25.40;;;;;;;;;;4977116;28;20197;-91
2021/11/14 13:47:33;;;;;;;33.00;24.33;;;;;;;;;;4977565;28;20256;-91
2021/11/14 13:50:02;;;;;;;40.67;30.47;;;;;;;;;;4976731;28;20240;-91
2021/11/14 13:52:35;;;;;;;40.57;32.93;;;;;;;;;;4976940;28;20226;-91
2021/11/14 13:55:07;;;;;;;41.73;28.47;;;;;;;;;;4976715;28;20211;-92
2021/11/14 13:57:37;;;;;;;39.67;28.17;;;;;;;;;;4977141;28;20548;-91
2021/11/14 14:00:08;;;;;;;30.47;25.17;;;;;;;;;;4977351;28;20213;-91
2021/11/14 14:02:35;;;;;;;37.87;28.17;;;;;;;;;;4976983;28;20197;-91
2021/11/14 14:05:05;;;;;;;27.13;20.80;;;;;;;;;;4977313;28;20208;-91
2021/11/14 14:07:34;;;;;;;28.90;22.77;;;;;;;;;;4976412;28;20324;-91
2021/11/14 14:10:05;;;;;;;22.33;17.63;;;;;;;;;;4976634;28;20212;-92
2021/11/14 14:12:32;;;;;;;25.43;19.63;;;;;;;;;;4976954;28;20195;-92
2021/11/14 14:15:05;;;;;;;23.03;19.00;;;;;;;;;;4976598;28;20197;-92
2021/11/14 14:17:32;;;;;;;26.83;20.90;;;;;;;;;;4976591;28;20207;-91
2021/11/14 14:20:00;;;;;;;25.33;20.47;;;;;;;;;;4976289;28;20232;-92
2021/11/14 14:22:44;;;;;;;23.40;17.17;;;;;;;;;;4976100;28;20287;-91
2021/11/14 14:25:15;;;;;;;20.87;17.57;;;;;;;;;;4976485;28;20203;-90
2021/11/14 14:27:44;;;;;;;28.03;24.27;;;;;;;;;;4957032;29;20229;-92